Terminal Aerodrome Forecast
Issued by NWS Quad Cities IA IL

Home | Current Version | Previous Version | Text Only | Print | Product List | Glossary On
Versions: 1 2 3 4 5 6 7 8 9 10 11 12 13 14 15 16 17 18 19 20 21 22 23 24 25 26 27 28 29
198
FTUS43 KDVN 301730
TAFDBQ
TAF
KDBQ 301730Z 3018/0118 07018G25KT 3SM -RA BR OVC008
      TEMPO 3018/3022 2SM -RA BR
     FM302300 06016G23KT 5SM BR VCSH OVC006
     FM010300 05014KT 3SM -DZ BR VCSH OVC004
     FM010600 06012KT 2SM -DZ BR VCSH OVC004
     FM011600 04012KT 1 1/2SM -RA BR OVC007=

USA.gov is the U.S. government's official web portal to all federal, state and local government web resources and services.